Terminal Aerodrome Forecast
Issued by NWS

Home | Current Version | Previous Version | Text Only | Print | Product List | Glossary On
Versions: 1 2 3 4 5 6 7 8 9 10 11 12 13 14
000
FTUS43 KSGF 011700
TAFBBG
TAF
KBBG 011730Z 0118/0218 18010KT P6SM SCT025 BKN120
     FM020200 18008KT P6SM VCTS SCT040CB OVC100
     FM020400 20008KT P6SM SCT040 OVC100 WS020/25045KT PROB30
      0205/0210 3SM -TSRA BKN025CB
     FM021000 30003KT P6SM VCSH BKN025=

USA.gov is the U.S. government's official web portal to all federal, state and local government web resources and services.